sensor_id;sensor_type;location;lat;lon;timestamp;temperature;humidity
15636;DHT22;7917;50.818;6.972;2023-04-30T00:02:00;7.70;99.90
15636;DHT22;7917;50.818;6.972;2023-04-30T00:04:27;7.70;99.90
15636;DHT22;7917;50.818;6.972;2023-04-30T00:06:53;7.60;99.90
15636;DHT22;7917;50.818;6.972;2023-04-30T00:09:20;7.50;99.90
15636;DHT22;7917;50.818;6.972;2023-04-30T00:11:47;7.50;99.90
15636;DHT22;7917;50.818;6.972;2023-04-30T00:14:14;7.50;99.90
15636;DHT22;7917;50.818;6.972;2023-04-30T00:16:41;7.50;99.90
15636;DHT22;7917;50.818;6.972;2023-04-30T00:19:11;7.40;99.90
15636;DHT22;7917;50.818;6.972;2023-04-30T00:21:38;7.40;99.90
15636;DHT22;7917;50.818;6.972;2023-04-30T00:24:05;7.30;99.90
15636;DHT22;7917;50.818;6.972;2023-04-30T00:26:31;7.30;99.90
15636;DHT22;7917;50.818;6.972;2023-04-30T00:28:58;7.20;99.90
15636;DHT22;7917;50.818;6.972;2023-04-30T00:31:25;7.20;99.90
15636;DHT22;7917;50.818;6.972;2023-04-30T00:33:55;7.10;99.90
15636;DHT22;7917;50.818;6.972;2023-04-30T00:36:22;7.10;99.90
15636;DHT22;7917;50.818;6.972;2023-04-30T00:38:49;7.10;99.90
15636;DHT22;7917;50.818;6.972;2023-04-30T00:41:16;7.10;99.90
15636;DHT22;7917;50.818;6.972;2023-04-30T00:43:42;7.10;99.90
15636;DHT22;7917;50.818;6.972;2023-04-30T00:46:11;7.10;99.90
15636;DHT22;7917;50.818;6.972;2023-04-30T00:48:38;7.00;99.90
15636;DHT22;7917;50.818;6.972;2023-04-30T00:51:06;7.00;99.90
15636;DHT22;7917;50.818;6.972;2023-04-30T00:53:33;6.90;99.90
15636;DHT22;7917;50.818;6.972;2023-04-30T00:56:00;6.90;99.90
15636;DHT22;7917;50.818;6.972;2023-04-30T00:58:30;7.00;99.90
15636;DHT22;7917;50.818;6.972;2023-04-30T01:01:00;6.90;99.90
15636;DHT22;7917;50.818;6.972;2023-04-30T01:03:41;6.80;99.90
15636;DHT22;7917;50.818;6.972;2023-04-30T01:06:09;6.80;99.90
15636;DHT22;7917;50.818;6.972;2023-04-30T01:08:36;6.80;99.90
15636;DHT22;7917;50.818;6.972;2023-04-30T01:11:11;6.80;99.90
15636;DHT22;7917;50.818;6.972;2023-04-30T01:13:48;6.80;99.90
15636;DHT22;7917;50.818;6.972;2023-04-30T01:16:23;6.70;99.90
15636;DHT22;7917;50.818;6.972;2023-04-30T01:18:55;6.60;99.90
15636;DHT22;7917;50.818;6.972;2023-04-30T01:21:24;6.60;99.90
15636;DHT22;7917;50.818;6.972;2023-04-30T01:24:13;6.70;99.90
15636;DHT22;7917;50.818;6.972;2023-04-30T01:26:56;6.70;99.90
15636;DHT22;7917;50.818;6.972;2023-04-30T01:29:26;6.70;99.90
15636;DHT22;7917;50.818;6.972;2023-04-30T01:31:55;6.70;99.90
15636;DHT22;7917;50.818;6.972;2023-04-30T01:34:22;6.60;99.90
15636;DHT22;7917;50.818;6.972;2023-04-30T01:36:57;6.50;99.90
15636;DHT22;7917;50.818;6.972;2023-04-30T01:39:44;6.40;99.90
15636;DHT22;7917;50.818;6.972;2023-04-30T01:42:20;6.40;99.90
15636;DHT22;7917;50.818;6.972;2023-04-30T01:45:03;6.40;99.90
15636;DHT22;7917;50.818;6.972;2023-04-30T01:47:38;6.40;99.90
15636;DHT22;7917;50.818;6.972;2023-04-30T01:50:14;6.30;99.90
15636;DHT22;7917;50.818;6.972;2023-04-30T01:52:46;6.30;99.90
15636;DHT22;7917;50.818;6.972;2023-04-30T01:55:20;6.30;99.90
15636;DHT22;7917;50.818;6.972;2023-04-30T01:57:55;6.40;99.90
15636;DHT22;7917;50.818;6.972;2023-04-30T02:00:23;6.60;99.90
15636;DHT22;7917;50.818;6.972;2023-04-30T02:02:50;6.70;99.90
15636;DHT22;7917;50.818;6.972;2023-04-30T02:05:17;6.50;99.90
15636;DHT22;7917;50.818;6.972;2023-04-30T02:07:45;6.40;99.90
15636;DHT22;7917;50.818;6.972;2023-04-30T02:10:15;6.30;99.90
15636;DHT22;7917;50.818;6.972;2023-04-30T02:12:42;6.30;99.90
15636;DHT22;7917;50.818;6.972;2023-04-30T02:15:09;6.20;99.90
15636;DHT22;7917;50.818;6.972;2023-04-30T02:17:37;6.20;99.90
15636;DHT22;7917;50.818;6.972;2023-04-30T02:20:08;6.10;99.90
15636;DHT22;7917;50.818;6.972;2023-04-30T02:22:35;6.10;99.90
15636;DHT22;7917;50.818;6.972;2023-04-30T02:25:02;6.00;99.90
15636;DHT22;7917;50.818;6.972;2023-04-30T02:27:31;6.00;99.90
15636;DHT22;7917;50.818;6.972;2023-04-30T02:30:01;5.90;99.90
15636;DHT22;7917;50.818;6.972;2023-04-30T02:32:28;5.90;99.90
15636;DHT22;7917;50.818;6.972;2023-04-30T02:34:55;5.90;99.90
15636;DHT22;7917;50.818;6.972;2023-04-30T02:37:25;5.90;99.90
15636;DHT22;7917;50.818;6.972;2023-04-30T02:39:52;5.80;99.90
15636;DHT22;7917;50.818;6.972;2023-04-30T02:42:19;5.80;99.90
15636;DHT22;7917;50.818;6.972;2023-04-30T02:44:46;5.80;99.90
15636;DHT22;7917;50.818;6.972;2023-04-30T02:47:13;5.70;99.90
15636;DHT22;7917;50.818;6.972;2023-04-30T02:49:40;5.70;99.90
15636;DHT22;7917;50.818;6.972;2023-04-30T02:52:07;5.70;99.90
15636;DHT22;7917;50.818;6.972;2023-04-30T02:54:35;5.70;99.90
15636;DHT22;7917;50.818;6.972;2023-04-30T02:57:01;5.70;99.90
15636;DHT22;7917;50.818;6.972;2023-04-30T02:59:28;5.70;99.90
15636;DHT22;7917;50.818;6.972;2023-04-30T03:04:59;5.70;99.90
15636;DHT22;7917;50.818;6.972;2023-04-30T03:07:26;5.70;99.90
15636;DHT22;7917;50.818;6.972;2023-04-30T03:09:53;5.60;99.90
15636;DHT22;7917;50.818;6.972;2023-04-30T03:12:20;5.50;99.90
15636;DHT22;7917;50.818;6.972;2023-04-30T03:14:47;5.50;99.90
15636;DHT22;7917;50.818;6.972;2023-04-30T03:17:13;5.40;99.90
15636;DHT22;7917;50.818;6.972;2023-04-30T03:19:40;5.40;99.90
15636;DHT22;7917;50.818;6.972;2023-04-30T03:22:06;5.40;99.90
15636;DHT22;7917;50.818;6.972;2023-04-30T03:24:34;5.30;99.90
15636;DHT22;7917;50.818;6.972;2023-04-30T03:27:01;5.30;99.90
15636;DHT22;7917;50.818;6.972;2023-04-30T03:29:28;5.30;99.90
15636;DHT22;7917;50.818;6.972;2023-04-30T03:31:54;5.40;99.90
15636;DHT22;7917;50.818;6.972;2023-04-30T03:34:21;5.30;99.90
15636;DHT22;7917;50.818;6.972;2023-04-30T03:36:48;5.30;99.90
15636;DHT22;7917;50.818;6.972;2023-04-30T03:39:15;5.40;99.90
15636;DHT22;7917;50.818;6.972;2023-04-30T03:41:45;5.50;99.90
15636;DHT22;7917;50.818;6.972;2023-04-30T03:44:12;5.50;99.90
15636;DHT22;7917;50.818;6.972;2023-04-30T03:46:40;5.60;99.90
15636;DHT22;7917;50.818;6.972;2023-04-30T03:49:07;5.80;99.90
15636;DHT22;7917;50.818;6.972;2023-04-30T03:51:35;5.90;99.90
15636;DHT22;7917;50.818;6.972;2023-04-30T03:54:04;6.00;99.90
15636;DHT22;7917;50.818;6.972;2023-04-30T03:56:40;6.00;99.90
15636;DHT22;7917;50.818;6.972;2023-04-30T03:59:07;6.10;99.90
15636;DHT22;7917;50.818;6.972;2023-04-30T04:01:35;6.20;99.90
15636;DHT22;7917;50.818;6.972;2023-04-30T04:04:02;6.20;99.90
15636;DHT22;7917;50.818;6.972;2023-04-30T04:06:29;6.20;99.90
15636;DHT22;7917;50.818;6.972;2023-04-30T04:08:56;6.20;99.90
15636;DHT22;7917;50.818;6.972;2023-04-30T04:11:23;6.20;99.90
15636;DHT22;7917;50.818;6.972;2023-04-30T04:13:49;6.20;99.90
15636;DHT22;7917;50.818;6.972;2023-04-30T04:16:17;6.10;99.90
15636;DHT22;7917;50.818;6.972;2023-04-30T04:18:43;6.10;99.90
15636;DHT22;7917;50.818;6.972;2023-04-30T04:21:10;6.00;99.90
15636;DHT22;7917;50.818;6.972;2023-04-30T04:23:37;6.00;99.90
15636;DHT22;7917;50.818;6.972;2023-04-30T04:26:04;5.90;99.90
15636;DHT22;7917;50.818;6.972;2023-04-30T04:28:30;5.90;99.90
15636;DHT22;7917;50.818;6.972;2023-04-30T04:30:57;5.90;99.90
15636;DHT22;7917;50.818;6.972;2023-04-30T04:33:25;5.90;99.90
15636;DHT22;7917;50.818;6.972;2023-04-30T04:35:52;5.90;99.90
15636;DHT22;7917;50.818;6.972;2023-04-30T04:38:19;5.90;99.90
15636;DHT22;7917;50.818;6.972;2023-04-30T04:40:50;6.10;99.90
15636;DHT22;7917;50.818;6.972;2023-04-30T04:43:18;6.20;99.90
15636;DHT22;7917;50.818;6.972;2023-04-30T04:45:45;6.20;99.90
15636;DHT22;7917;50.818;6.972;2023-04-30T04:48:12;6.30;99.90
15636;DHT22;7917;50.818;6.972;2023-04-30T04:50:40;6.50;99.90
15636;DHT22;7917;50.818;6.972;2023-04-30T04:53:06;6.60;99.90
15636;DHT22;7917;50.818;6.972;2023-04-30T04:55:33;6.70;99.90
15636;DHT22;7917;50.818;6.972;2023-04-30T04:58:00;6.70;99.90
15636;DHT22;7917;50.818;6.972;2023-04-30T05:00:27;6.70;99.90
15636;DHT22;7917;50.818;6.972;2023-04-30T05:02:54;6.80;99.90
15636;DHT22;7917;50.818;6.972;2023-04-30T05:05:24;6.70;99.90
15636;DHT22;7917;50.818;6.972;2023-04-30T05:07:52;6.70;99.90
15636;DHT22;7917;50.818;6.972;2023-04-30T05:10:19;6.80;99.90
15636;DHT22;7917;50.818;6.972;2023-04-30T05:12:47;6.80;99.90
15636;DHT22;7917;50.818;6.972;2023-04-30T05:15:13;6.80;99.90
15636;DHT22;7917;50.818;6.972;2023-04-30T05:17:40;6.90;99.90
15636;DHT22;7917;50.818;6.972;2023-04-30T05:20:08;6.90;99.90
15636;DHT22;7917;50.818;6.972;2023-04-30T05:22:35;6.90;99.90
15636;DHT22;7917;50.818;6.972;2023-04-30T05:25:03;6.90;99.90
15636;DHT22;7917;50.818;6.972;2023-04-30T05:27:30;7.00;99.90
15636;DHT22;7917;50.818;6.972;2023-04-30T05:30:00;7.00;99.90
15636;DHT22;7917;50.818;6.972;2023-04-30T05:32:27;7.10;99.90
15636;DHT22;7917;50.818;6.972;2023-04-30T05:34:53;7.10;99.90
15636;DHT22;7917;50.818;6.972;2023-04-30T05:37:20;7.10;99.90
15636;DHT22;7917;50.818;6.972;2023-04-30T05:39:47;6.80;99.90
15636;DHT22;7917;50.818;6.972;2023-04-30T05:42:15;6.80;99.90
15636;DHT22;7917;50.818;6.972;2023-04-30T05:44:42;6.90;99.90
15636;DHT22;7917;50.818;6.972;2023-04-30T05:47:08;7.00;99.90
15636;DHT22;7917;50.818;6.972;2023-04-30T05:49:35;7.10;99.90
15636;DHT22;7917;50.818;6.972;2023-04-30T05:52:03;7.10;99.90
15636;DHT22;7917;50.818;6.972;2023-04-30T05:54:29;7.30;99.90
15636;DHT22;7917;50.818;6.972;2023-04-30T05:56:56;7.50;99.90
15636;DHT22;7917;50.818;6.972;2023-04-30T05:59:24;7.70;99.90
15636;DHT22;7917;50.818;6.972;2023-04-30T06:01:51;7.80;99.90
15636;DHT22;7917;50.818;6.972;2023-04-30T06:04:18;7.90;99.90
15636;DHT22;7917;50.818;6.972;2023-04-30T06:06:44;8.00;99.90
15636;DHT22;7917;50.818;6.972;2023-04-30T06:09:11;8.00;99.90
15636;DHT22;7917;50.818;6.972;2023-04-30T06:11:38;8.20;99.90
15636;DHT22;7917;50.818;6.972;2023-04-30T06:14:04;8.40;99.90
15636;DHT22;7917;50.818;6.972;2023-04-30T06:16:32;8.30;99.90
15636;DHT22;7917;50.818;6.972;2023-04-30T06:18:58;8.30;99.90
15636;DHT22;7917;50.818;6.972;2023-04-30T06:21:25;8.40;99.90
15636;DHT22;7917;50.818;6.972;2023-04-30T06:23:52;8.50;99.90
15636;DHT22;7917;50.818;6.972;2023-04-30T06:26:19;8.70;99.90
15636;DHT22;7917;50.818;6.972;2023-04-30T06:28:46;8.80;99.90
15636;DHT22;7917;50.818;6.972;2023-04-30T06:31:13;8.80;99.90
15636;DHT22;7917;50.818;6.972;2023-04-30T06:33:40;8.70;99.90
15636;DHT22;7917;50.818;6.972;2023-04-30T06:36:13;8.60;99.90
15636;DHT22;7917;50.818;6.972;2023-04-30T06:38:39;8.60;99.90
15636;DHT22;7917;50.818;6.972;2023-04-30T06:41:07;8.50;99.90
15636;DHT22;7917;50.818;6.972;2023-04-30T06:43:34;8.50;99.90
15636;DHT22;7917;50.818;6.972;2023-04-30T06:46:01;8.50;99.90
15636;DHT22;7917;50.818;6.972;2023-04-30T06:48:28;8.50;99.90
15636;DHT22;7917;50.818;6.972;2023-04-30T06:50:56;8.50;99.90
15636;DHT22;7917;50.818;6.972;2023-04-30T06:53:23;8.60;99.90
15636;DHT22;7917;50.818;6.972;2023-04-30T06:55:50;8.60;99.90
15636;DHT22;7917;50.818;6.972;2023-04-30T06:58:17;8.60;99.90
15636;DHT22;7917;50.818;6.972;2023-04-30T07:00:44;8.70;99.90
15636;DHT22;7917;50.818;6.972;2023-04-30T07:03:11;9.00;99.90
15636;DHT22;7917;50.818;6.972;2023-04-30T07:05:38;9.20;99.90
15636;DHT22;7917;50.818;6.972;2023-04-30T07:08:07;9.40;99.90
15636;DHT22;7917;50.818;6.972;2023-04-30T07:10:33;9.80;99.90
15636;DHT22;7917;50.818;6.972;2023-04-30T07:13:00;10.10;99.90
15636;DHT22;7917;50.818;6.972;2023-04-30T07:15:27;10.10;99.90
15636;DHT22;7917;50.818;6.972;2023-04-30T07:17:53;10.20;99.90
15636;DHT22;7917;50.818;6.972;2023-04-30T07:20:20;10.30;99.90
15636;DHT22;7917;50.818;6.972;2023-04-30T07:22:47;10.20;99.90
15636;DHT22;7917;50.818;6.972;2023-04-30T07:25:14;10.40;99.90
15636;DHT22;7917;50.818;6.972;2023-04-30T07:27:41;10.60;99.90
15636;DHT22;7917;50.818;6.972;2023-04-30T07:30:08;10.90;99.90
15636;DHT22;7917;50.818;6.972;2023-04-30T07:32:35;11.10;93.60
15636;DHT22;7917;50.818;6.972;2023-04-30T07:35:03;11.40;99.90
15636;DHT22;7917;50.818;6.972;2023-04-30T07:37:30;11.80;99.90
15636;DHT22;7917;50.818;6.972;2023-04-30T07:39:56;11.80;63.60
15636;DHT22;7917;50.818;6.972;2023-04-30T07:42:24;11.80;1.00
15636;DHT22;7917;50.818;6.972;2023-04-30T07:44:51;11.90;1.00
15636;DHT22;7917;50.818;6.972;2023-04-30T07:47:18;12.00;1.00
15636;DHT22;7917;50.818;6.972;2023-04-30T07:49:45;12.20;1.00
15636;DHT22;7917;50.818;6.972;2023-04-30T07:52:12;12.40;1.00
15636;DHT22;7917;50.818;6.972;2023-04-30T07:54:39;12.50;1.00
15636;DHT22;7917;50.818;6.972;2023-04-30T07:57:06;12.90;1.00
15636;DHT22;7917;50.818;6.972;2023-04-30T07:59:33;12.90;99.90
15636;DHT22;7917;50.818;6.972;2023-04-30T08:02:00;13.00;1.00
15636;DHT22;7917;50.818;6.972;2023-04-30T08:04:27;13.20;99.90
15636;DHT22;7917;50.818;6.972;2023-04-30T08:06:53;13.20;99.90
15636;DHT22;7917;50.818;6.972;2023-04-30T08:09:20;13.60;1.00
15636;DHT22;7917;50.818;6.972;2023-04-30T08:11:47;13.90;1.00
15636;DHT22;7917;50.818;6.972;2023-04-30T08:14:13;14.00;1.00
15636;DHT22;7917;50.818;6.972;2023-04-30T08:16:41;13.90;1.00
15636;DHT22;7917;50.818;6.972;2023-04-30T08:19:07;13.90;1.00
15636;DHT22;7917;50.818;6.972;2023-04-30T08:21:34;13.80;1.00
15636;DHT22;7917;50.818;6.972;2023-04-30T08:24:01;13.70;25.60
15636;DHT22;7917;50.818;6.972;2023-04-30T08:26:34;13.90;1.00
15636;DHT22;7917;50.818;6.972;2023-04-30T08:29:01;14.10;1.00
15636;DHT22;7917;50.818;6.972;2023-04-30T08:31:27;14.00;1.00
15636;DHT22;7917;50.818;6.972;2023-04-30T08:33:55;14.30;99.90
15636;DHT22;7917;50.818;6.972;2023-04-30T08:36:21;14.50;99.90
15636;DHT22;7917;50.818;6.972;2023-04-30T08:38:48;14.60;8.10
15636;DHT22;7917;50.818;6.972;2023-04-30T08:41:24;14.60;1.00
15636;DHT22;7917;50.818;6.972;2023-04-30T08:43:52;14.70;90.80
15636;DHT22;7917;50.818;6.972;2023-04-30T08:46:19;14.90;1.00
15636;DHT22;7917;50.818;6.972;2023-04-30T08:48:48;15.10;99.90
15636;DHT22;7917;50.818;6.972;2023-04-30T08:51:15;15.60;99.90
15636;DHT22;7917;50.818;6.972;2023-04-30T08:53:43;16.00;99.90
15636;DHT22;7917;50.818;6.972;2023-04-30T08:56:15;16.10;99.90
15636;DHT22;7917;50.818;6.972;2023-04-30T08:58:42;16.20;1.00
15636;DHT22;7917;50.818;6.972;2023-04-30T09:01:09;16.30;1.00
15636;DHT22;7917;50.818;6.972;2023-04-30T09:03:36;16.40;99.90
15636;DHT22;7917;50.818;6.972;2023-04-30T09:06:03;16.40;99.90
15636;DHT22;7917;50.818;6.972;2023-04-30T09:08:44;16.60;1.00
15636;DHT22;7917;50.818;6.972;2023-04-30T09:11:22;16.70;99.90
15636;DHT22;7917;50.818;6.972;2023-04-30T09:13:49;16.70;99.90
15636;DHT22;7917;50.818;6.972;2023-04-30T09:16:18;16.80;99.90
15636;DHT22;7917;50.818;6.972;2023-04-30T09:18:45;16.90;99.90
15636;DHT22;7917;50.818;6.972;2023-04-30T09:21:12;16.90;99.90
15636;DHT22;7917;50.818;6.972;2023-04-30T09:23:54;17.00;99.90
15636;DHT22;7917;50.818;6.972;2023-04-30T09:26:26;17.20;99.90
15636;DHT22;7917;50.818;6.972;2023-04-30T09:28:54;17.20;99.90
15636;DHT22;7917;50.818;6.972;2023-04-30T09:31:22;17.50;99.90
15636;DHT22;7917;50.818;6.972;2023-04-30T09:33:49;17.30;99.90
15636;DHT22;7917;50.818;6.972;2023-04-30T09:36:16;17.50;99.90
15636;DHT22;7917;50.818;6.972;2023-04-30T09:38:43;17.40;99.90
15636;DHT22;7917;50.818;6.972;2023-04-30T09:41:22;17.50;99.90
15636;DHT22;7917;50.818;6.972;2023-04-30T09:43:49;17.50;99.90
15636;DHT22;7917;50.818;6.972;2023-04-30T09:46:18;17.80;99.90
15636;DHT22;7917;50.818;6.972;2023-04-30T09:48:45;17.60;99.90
15636;DHT22;7917;50.818;6.972;2023-04-30T09:51:11;17.50;99.90
15636;DHT22;7917;50.818;6.972;2023-04-30T09:53:41;17.60;99.90
15636;DHT22;7917;50.818;6.972;2023-04-30T09:56:11;17.50;99.90
15636;DHT22;7917;50.818;6.972;2023-04-30T09:58:43;17.30;99.90
15636;DHT22;7917;50.818;6.972;2023-04-30T10:01:10;17.30;99.90
15636;DHT22;7917;50.818;6.972;2023-04-30T10:03:38;17.20;99.90
15636;DHT22;7917;50.818;6.972;2023-04-30T10:06:06;17.30;99.90
15636;DHT22;7917;50.818;6.972;2023-04-30T10:08:37;17.60;99.90
15636;DHT22;7917;50.818;6.972;2023-04-30T10:11:07;17.80;99.90
15636;DHT22;7917;50.818;6.972;2023-04-30T10:13:39;17.60;99.90
15636;DHT22;7917;50.818;6.972;2023-04-30T10:16:14;17.50;99.90
15636;DHT22;7917;50.818;6.972;2023-04-30T10:18:45;17.80;99.90
15636;DHT22;7917;50.818;6.972;2023-04-30T10:21:14;18.10;99.90
15636;DHT22;7917;50.818;6.972;2023-04-30T10:23:43;18.20;99.90
15636;DHT22;7917;50.818;6.972;2023-04-30T10:26:11;18.40;99.90
15636;DHT22;7917;50.818;6.972;2023-04-30T10:28:39;18.60;99.90
15636;DHT22;7917;50.818;6.972;2023-04-30T10:31:06;18.70;99.90
15636;DHT22;7917;50.818;6.972;2023-04-30T10:33:42;18.80;99.90
15636;DHT22;7917;50.818;6.972;2023-04-30T10:36:21;18.80;99.90
15636;DHT22;7917;50.818;6.972;2023-04-30T10:38:49;18.70;99.90
15636;DHT22;7917;50.818;6.972;2023-04-30T10:41:19;18.20;99.90
15636;DHT22;7917;50.818;6.972;2023-04-30T10:43:46;18.00;99.90
15636;DHT22;7917;50.818;6.972;2023-04-30T10:46:21;17.60;99.90
15636;DHT22;7917;50.818;6.972;2023-04-30T10:48:49;17.60;99.90
15636;DHT22;7917;50.818;6.972;2023-04-30T10:51:19;17.40;99.90
15636;DHT22;7917;50.818;6.972;2023-04-30T10:53:49;17.20;99.90
15636;DHT22;7917;50.818;6.972;2023-04-30T10:56:29;17.20;99.90
15636;DHT22;7917;50.818;6.972;2023-04-30T10:58:59;17.60;99.90
15636;DHT22;7917;50.818;6.972;2023-04-30T11:01:27;17.80;99.90
15636;DHT22;7917;50.818;6.972;2023-04-30T11:04:04;17.80;99.90
15636;DHT22;7917;50.818;6.972;2023-04-30T11:06:50;18.30;99.90
15636;DHT22;7917;50.818;6.972;2023-04-30T11:09:33;18.60;99.90
15636;DHT22;7917;50.818;6.972;2023-04-30T11:12:01;18.90;99.90
15636;DHT22;7917;50.818;6.972;2023-04-30T11:14:31;19.50;99.90
15636;DHT22;7917;50.818;6.972;2023-04-30T11:16:59;19.70;99.90
15636;DHT22;7917;50.818;6.972;2023-04-30T11:19:27;20.00;99.90
15636;DHT22;7917;50.818;6.972;2023-04-30T11:22:17;20.10;99.90
15636;DHT22;7917;50.818;6.972;2023-04-30T11:25:02;20.30;99.90
15636;DHT22;7917;50.818;6.972;2023-04-30T11:27:31;19.80;99.90
15636;DHT22;7917;50.818;6.972;2023-04-30T11:29:59;19.30;99.90
15636;DHT22;7917;50.818;6.972;2023-04-30T11:32:30;19.00;99.90
15636;DHT22;7917;50.818;6.972;2023-04-30T11:34:58;18.60;99.90
15636;DHT22;7917;50.818;6.972;2023-04-30T11:37:31;18.80;99.90
15636;DHT22;7917;50.818;6.972;2023-04-30T11:40:00;19.00;99.90
15636;DHT22;7917;50.818;6.972;2023-04-30T11:42:27;19.20;99.90
15636;DHT22;7917;50.818;6.972;2023-04-30T11:45:03;19.10;99.90
15636;DHT22;7917;50.818;6.972;2023-04-30T11:47:41;18.70;99.90
15636;DHT22;7917;50.818;6.972;2023-04-30T11:50:09;18.50;99.90
15636;DHT22;7917;50.818;6.972;2023-04-30T11:52:35;18.50;99.90
15636;DHT22;7917;50.818;6.972;2023-04-30T11:55:06;19.00;99.90
15636;DHT22;7917;50.818;6.972;2023-04-30T11:57:51;19.50;99.90
15636;DHT22;7917;50.818;6.972;2023-04-30T12:00:24;20.20;99.90
15636;DHT22;7917;50.818;6.972;2023-04-30T12:02:52;20.70;99.90
15636;DHT22;7917;50.818;6.972;2023-04-30T12:05:20;21.20;99.90
15636;DHT22;7917;50.818;6.972;2023-04-30T12:07:48;21.20;99.90
15636;DHT22;7917;50.818;6.972;2023-04-30T12:10:17;21.20;99.90
15636;DHT22;7917;50.818;6.972;2023-04-30T12:12:45;21.50;99.90
15636;DHT22;7917;50.818;6.972;2023-04-30T12:15:14;21.90;99.90
15636;DHT22;7917;50.818;6.972;2023-04-30T12:17:43;21.50;99.90
15636;DHT22;7917;50.818;6.972;2023-04-30T12:20:12;21.00;99.90
15636;DHT22;7917;50.818;6.972;2023-04-30T12:22:40;21.20;99.90
15636;DHT22;7917;50.818;6.972;2023-04-30T12:25:08;21.20;99.90
15636;DHT22;7917;50.818;6.972;2023-04-30T12:27:39;21.40;99.90
15636;DHT22;7917;50.818;6.972;2023-04-30T12:30:08;21.50;99.90
15636;DHT22;7917;50.818;6.972;2023-04-30T12:32:39;21.60;99.90
15636;DHT22;7917;50.818;6.972;2023-04-30T12:35:08;21.80;99.90
15636;DHT22;7917;50.818;6.972;2023-04-30T12:37:41;21.90;99.90
15636;DHT22;7917;50.818;6.972;2023-04-30T12:40:09;22.20;99.90
15636;DHT22;7917;50.818;6.972;2023-04-30T12:42:36;22.10;99.90
15636;DHT22;7917;50.818;6.972;2023-04-30T12:45:03;21.50;99.90
15636;DHT22;7917;50.818;6.972;2023-04-30T12:47:30;20.90;99.90
15636;DHT22;7917;50.818;6.972;2023-04-30T12:49:57;20.60;99.90
15636;DHT22;7917;50.818;6.972;2023-04-30T12:52:25;20.30;99.90
15636;DHT22;7917;50.818;6.972;2023-04-30T12:54:52;20.10;99.90
15636;DHT22;7917;50.818;6.972;2023-04-30T12:57:20;20.00;99.90
15636;DHT22;7917;50.818;6.972;2023-04-30T12:59:58;20.30;99.90
15636;DHT22;7917;50.818;6.972;2023-04-30T13:02:26;20.90;99.90
15636;DHT22;7917;50.818;6.972;2023-04-30T13:04:53;21.00;99.90
15636;DHT22;7917;50.818;6.972;2023-04-30T13:07:21;21.20;99.90
15636;DHT22;7917;50.818;6.972;2023-04-30T13:09:48;21.40;99.90
15636;DHT22;7917;50.818;6.972;2023-04-30T13:12:15;21.20;99.90
15636;DHT22;7917;50.818;6.972;2023-04-30T13:14:42;21.00;99.90
15636;DHT22;7917;50.818;6.972;2023-04-30T13:17:09;21.10;99.90
15636;DHT22;7917;50.818;6.972;2023-04-30T13:19:38;20.90;99.90
15636;DHT22;7917;50.818;6.972;2023-04-30T13:22:06;20.90;99.90
15636;DHT22;7917;50.818;6.972;2023-04-30T13:24:33;21.00;99.90
15636;DHT22;7917;50.818;6.972;2023-04-30T13:27:00;21.00;99.90
15636;DHT22;7917;50.818;6.972;2023-04-30T13:29:29;21.10;99.90
15636;DHT22;7917;50.818;6.972;2023-04-30T13:31:56;20.90;99.90
15636;DHT22;7917;50.818;6.972;2023-04-30T13:34:23;20.90;99.90
15636;DHT22;7917;50.818;6.972;2023-04-30T13:36:50;20.90;99.90
15636;DHT22;7917;50.818;6.972;2023-04-30T13:39:18;20.90;99.90
15636;DHT22;7917;50.818;6.972;2023-04-30T13:41:45;20.80;99.90
15636;DHT22;7917;50.818;6.972;2023-04-30T13:44:15;20.80;99.90
15636;DHT22;7917;50.818;6.972;2023-04-30T13:46:42;20.80;99.90
15636;DHT22;7917;50.818;6.972;2023-04-30T13:49:09;20.90;99.90
15636;DHT22;7917;50.818;6.972;2023-04-30T13:51:36;20.90;99.90
15636;DHT22;7917;50.818;6.972;2023-04-30T13:54:03;20.80;99.90
15636;DHT22;7917;50.818;6.972;2023-04-30T13:56:30;20.60;99.90
15636;DHT22;7917;50.818;6.972;2023-04-30T13:58:57;20.70;99.90
15636;DHT22;7917;50.818;6.972;2023-04-30T14:01:24;20.50;99.90
15636;DHT22;7917;50.818;6.972;2023-04-30T14:03:51;20.50;99.90
15636;DHT22;7917;50.818;6.972;2023-04-30T14:06:18;20.50;99.90
15636;DHT22;7917;50.818;6.972;2023-04-30T14:08:45;21.00;99.90
15636;DHT22;7917;50.818;6.972;2023-04-30T14:11:11;21.60;99.90
15636;DHT22;7917;50.818;6.972;2023-04-30T14:13:39;22.10;99.90
15636;DHT22;7917;50.818;6.972;2023-04-30T14:16:07;22.60;99.90
15636;DHT22;7917;50.818;6.972;2023-04-30T14:18:34;23.10;99.90
15636;DHT22;7917;50.818;6.972;2023-04-30T14:21:02;23.30;99.90
15636;DHT22;7917;50.818;6.972;2023-04-30T14:23:28;23.40;99.40
15636;DHT22;7917;50.818;6.972;2023-04-30T14:25:56;23.50;98.60
15636;DHT22;7917;50.818;6.972;2023-04-30T14:28:23;24.00;99.90
15636;DHT22;7917;50.818;6.972;2023-04-30T14:30:49;24.10;99.90
15636;DHT22;7917;50.818;6.972;2023-04-30T14:33:16;24.40;95.00
15636;DHT22;7917;50.818;6.972;2023-04-30T14:35:44;24.50;91.40
15636;DHT22;7917;50.818;6.972;2023-04-30T14:38:11;24.80;90.80
15636;DHT22;7917;50.818;6.972;2023-04-30T14:40:37;24.90;92.30
15636;DHT22;7917;50.818;6.972;2023-04-30T14:43:04;24.70;93.30
15636;DHT22;7917;50.818;6.972;2023-04-30T14:45:32;23.70;96.10
15636;DHT22;7917;50.818;6.972;2023-04-30T14:47:58;22.70;99.90
15636;DHT22;7917;50.818;6.972;2023-04-30T14:50:25;21.90;99.90
15636;DHT22;7917;50.818;6.972;2023-04-30T14:52:53;21.50;99.90
15636;DHT22;7917;50.818;6.972;2023-04-30T14:55:20;21.10;99.90
15636;DHT22;7917;50.818;6.972;2023-04-30T14:57:46;20.90;99.90
15636;DHT22;7917;50.818;6.972;2023-04-30T15:00:15;20.70;99.90
15636;DHT22;7917;50.818;6.972;2023-04-30T15:02:41;21.50;99.90
15636;DHT22;7917;50.818;6.972;2023-04-30T15:05:11;22.80;99.90
15636;DHT22;7917;50.818;6.972;2023-04-30T15:07:38;23.90;93.40
15636;DHT22;7917;50.818;6.972;2023-04-30T15:10:07;24.50;91.10
15636;DHT22;7917;50.818;6.972;2023-04-30T15:12:34;24.20;90.30
15636;DHT22;7917;50.818;6.972;2023-04-30T15:15:01;24.90;86.90
15636;DHT22;7917;50.818;6.972;2023-04-30T15:17:29;24.60;91.10
15636;DHT22;7917;50.818;6.972;2023-04-30T15:19:56;24.90;88.20
15636;DHT22;7917;50.818;6.972;2023-04-30T15:22:25;25.40;80.50
15636;DHT22;7917;50.818;6.972;2023-04-30T15:24:52;25.80;78.50
15636;DHT22;7917;50.818;6.972;2023-04-30T15:27:20;26.20;72.90
15636;DHT22;7917;50.818;6.972;2023-04-30T15:29:47;26.50;67.90
15636;DHT22;7917;50.818;6.972;2023-04-30T15:32:14;26.00;67.60
15636;DHT22;7917;50.818;6.972;2023-04-30T15:34:41;25.60;74.70
15636;DHT22;7917;50.818;6.972;2023-04-30T15:37:08;24.80;78.30
15636;DHT22;7917;50.818;6.972;2023-04-30T15:39:35;23.80;89.80
15636;DHT22;7917;50.818;6.972;2023-04-30T15:42:01;22.90;95.70
15636;DHT22;7917;50.818;6.972;2023-04-30T15:44:29;22.20;98.80
15636;DHT22;7917;50.818;6.972;2023-04-30T15:46:56;21.80;99.90
15636;DHT22;7917;50.818;6.972;2023-04-30T15:49:22;21.80;99.90
15636;DHT22;7917;50.818;6.972;2023-04-30T15:51:50;22.00;99.90
15636;DHT22;7917;50.818;6.972;2023-04-30T15:54:17;21.80;99.90
15636;DHT22;7917;50.818;6.972;2023-04-30T15:56:44;21.70;99.90
15636;DHT22;7917;50.818;6.972;2023-04-30T15:59:11;21.70;99.90
15636;DHT22;7917;50.818;6.972;2023-04-30T16:01:41;21.60;99.90
15636;DHT22;7917;50.818;6.972;2023-04-30T16:04:08;22.20;99.90
15636;DHT22;7917;50.818;6.972;2023-04-30T16:06:35;23.40;92.80